createdAt,value
2023-01-17T00:00:29.516Z,98410.09
2023-01-17T00:02:59.160Z,98396.31
2023-01-17T00:05:45.101Z,98392.50
2023-01-17T00:08:32.020Z,98402.88
2023-01-17T00:11:00.361Z,98399.63
2023-01-17T00:13:28.585Z,98412.50
2023-01-17T00:15:57.215Z,98416.44
2023-01-17T00:18:25.456Z,98413.28
2023-01-17T00:21:10.759Z,98404.09
2023-01-17T00:23:56.717Z,98420.13
2023-01-17T00:26:25.168Z,98418.16
2023-01-17T00:28:52.084Z,98416.88
2023-01-17T00:31:20.231Z,98405.28
2023-01-17T00:33:47.197Z,98414.56
2023-01-17T00:36:14.132Z,98414.56
2023-01-17T00:38:42.467Z,98419.00
2023-01-17T00:41:11.173Z,98413.63
2023-01-17T00:43:56.724Z,98428.56
2023-01-17T00:46:42.805Z,98437.31
2023-01-17T00:49:28.233Z,98422.00
2023-01-17T00:52:14.112Z,98444.13
2023-01-17T00:55:01.068Z,98443.44
2023-01-17T00:57:46.160Z,98437.63
2023-01-17T01:00:32.527Z,98431.13
2023-01-17T01:03:17.818Z,98433.47
2023-01-17T01:06:03.678Z,98456.00
2023-01-17T01:08:49.463Z,98443.91
2023-01-17T01:11:39.385Z,98450.66
2023-01-17T01:14:26.371Z,98462.25
2023-01-17T01:17:12.308Z,98471.81
2023-01-17T01:19:58.239Z,98464.06
2023-01-17T01:22:43.942Z,98479.00
2023-01-17T01:25:29.721Z,98472.72
2023-01-17T01:28:24.352Z,98470.03
2023-01-17T01:31:09.672Z,98474.31
2023-01-17T01:33:38.006Z,98489.78
2023-01-17T01:36:09.141Z,98501.81
2023-01-17T01:38:37.454Z,98528.63
2023-01-17T01:41:06.057Z,98517.91
2023-01-17T01:43:47.593Z,98514.53
2023-01-17T01:46:19.533Z,98518.06
2023-01-17T01:48:51.684Z,98511.41
2023-01-17T01:51:26.381Z,98519.78
2023-01-17T01:53:59.969Z,98516.94
2023-01-17T01:56:30.315Z,98504.16
2023-01-17T01:59:04.328Z,98514.84
2023-01-17T02:01:32.905Z,98511.19
2023-01-17T02:04:01.319Z,98510.19
2023-01-17T02:06:33.705Z,98515.09
2023-01-17T02:09:08.522Z,98518.19
2023-01-17T02:11:38.758Z,98530.56
2023-01-17T02:14:08.675Z,98507.22
2023-01-17T02:16:50.094Z,98517.50
2023-01-17T02:19:44.695Z,98524.53
2023-01-17T02:22:39.338Z,98526.50
2023-01-17T02:25:36.025Z,98528.63
2023-01-17T02:28:19.982Z,98533.28
2023-01-17T02:30:55.006Z,98528.69
2023-01-17T02:33:33.273Z,98537.09
2023-01-17T02:36:12.199Z,98538.56
2023-01-17T02:38:50.568Z,98542.94
2023-01-17T02:41:23.369Z,98548.13
2023-01-17T02:43:52.379Z,98540.53
2023-01-17T02:46:21.936Z,98539.97
2023-01-17T02:48:51.901Z,98549.84
2023-01-17T02:51:46.126Z,98551.53
2023-01-17T02:54:49.059Z,98540.28
2023-01-17T02:57:30.860Z,98538.88
2023-01-17T03:00:04.091Z,98538.72
2023-01-17T03:02:42.150Z,98571.41
2023-01-17T03:05:15.541Z,98564.28
2023-01-17T03:07:44.632Z,98575.53
2023-01-17T03:10:16.074Z,98562.84
2023-01-17T03:12:44.879Z,98576.09
2023-01-17T03:15:14.197Z,98573.53
2023-01-17T03:17:48.157Z,98562.72
2023-01-17T03:20:16.650Z,98542.53
2023-01-17T03:22:44.658Z,98554.81
2023-01-17T03:25:12.811Z,98562.84
2023-01-17T03:27:40.966Z,98562.41
2023-01-17T03:30:10.431Z,98562.81
2023-01-17T03:32:38.600Z,98563.69
2023-01-17T03:35:09.027Z,98567.59
2023-01-17T03:37:37.155Z,98565.06
2023-01-17T03:40:05.944Z,98565.38
2023-01-17T03:42:34.146Z,98567.75
2023-01-17T03:45:02.224Z,98570.16
2023-01-17T03:47:30.495Z,98560.84
2023-01-17T03:49:58.536Z,98573.66
2023-01-17T03:52:28.248Z,98572.13
2023-01-17T03:54:56.421Z,98572.94
2023-01-17T03:57:24.590Z,98558.00
2023-01-17T03:59:52.697Z,98573.25
2023-01-17T04:02:20.905Z,98566.50
2023-01-17T04:04:48.917Z,98569.59
2023-01-17T04:07:17.090Z,98579.88
2023-01-17T04:09:46.624Z,98566.19
2023-01-17T04:12:14.655Z,98563.53
2023-01-17T04:14:42.872Z,98574.06
2023-01-17T04:17:13.358Z,98573.81
2023-01-17T04:19:42.255Z,98575.94
2023-01-17T04:22:10.516Z,98577.22
2023-01-17T04:24:38.628Z,98578.31
2023-01-17T04:27:08.228Z,98582.69
2023-01-17T04:29:36.383Z,98579.59
2023-01-17T04:32:04.677Z,98586.50
2023-01-17T04:34:33.127Z,98585.94
2023-01-17T04:37:01.354Z,98573.28
2023-01-17T04:39:29.486Z,98580.34
2023-01-17T04:41:57.708Z,98575.13
2023-01-17T04:44:27.549Z,98571.91
2023-01-17T04:46:55.560Z,98581.47
2023-01-17T04:49:23.705Z,98578.91
2023-01-17T04:51:51.893Z,98572.31
2023-01-17T04:54:20.160Z,98577.94
2023-01-17T04:56:49.184Z,98581.47
2023-01-17T04:59:17.431Z,98580.50
2023-01-17T05:01:49.042Z,98587.53
2023-01-17T05:04:17.413Z,98585.16
2023-01-17T05:06:45.975Z,98588.53
2023-01-17T05:09:14.140Z,98594.31
2023-01-17T05:11:42.503Z,98591.63
2023-01-17T05:14:11.185Z,98586.44
2023-01-17T05:16:39.483Z,98596.69
2023-01-17T05:19:09.242Z,98594.16
2023-01-17T05:21:37.477Z,98606.56
2023-01-17T05:24:06.132Z,98622.31
2023-01-17T05:26:34.422Z,98610.50
2023-01-17T05:29:02.711Z,98619.06
2023-01-17T05:31:30.863Z,98610.06
2023-01-17T05:33:59.142Z,98624.88
2023-01-17T05:36:28.738Z,98625.00
2023-01-17T05:38:56.942Z,98627.81
2023-01-17T05:41:25.198Z,98624.31
2023-01-17T05:43:53.469Z,98608.81
2023-01-17T05:46:21.754Z,98621.22
2023-01-17T05:48:49.988Z,98622.88
2023-01-17T05:51:18.102Z,98615.31
2023-01-17T05:53:47.735Z,98627.81
2023-01-17T05:56:15.980Z,98613.31
2023-01-17T05:58:47.171Z,98621.22
2023-01-17T06:01:15.329Z,98624.88
2023-01-17T06:03:43.461Z,98629.66
2023-01-17T06:06:11.608Z,98620.34
2023-01-17T06:08:39.785Z,98625.13
2023-01-17T06:11:09.499Z,98636.97
2023-01-17T06:13:37.668Z,98630.47
2023-01-17T06:16:06.395Z,98644.00
2023-01-17T06:18:34.978Z,98653.31
2023-01-17T06:21:03.079Z,98652.75
2023-01-17T06:23:31.371Z,98658.94
2023-01-17T06:26:03.040Z,98653.84
2023-01-17T06:28:32.743Z,98660.88
2023-01-17T06:31:01.302Z,98653.41
2023-01-17T06:33:29.476Z,98659.19
2023-01-17T06:35:57.693Z,98647.09
2023-01-17T06:38:27.390Z,98653.31
2023-01-17T06:40:55.628Z,98649.34
2023-01-17T06:43:23.803Z,98652.16
2023-01-17T06:45:53.607Z,98659.16
2023-01-17T06:48:21.966Z,98649.75
2023-01-17T06:50:50.054Z,98645.94
2023-01-17T06:53:18.278Z,98647.63
2023-01-17T06:55:46.471Z,98650.06
2023-01-17T06:58:14.706Z,98652.59
2023-01-17T07:00:43.039Z,98640.59
2023-01-17T07:03:19.298Z,98645.94
2023-01-17T07:05:47.793Z,98647.94
2023-01-17T07:08:17.182Z,98639.44
2023-01-17T07:10:45.820Z,98637.06
2023-01-17T07:13:14.569Z,98643.41
2023-01-17T07:15:42.742Z,98640.28
2023-01-17T07:18:10.935Z,98660.56
2023-01-17T07:20:41.502Z,98657.31
2023-01-17T07:23:09.673Z,98659.97
2023-01-17T07:25:37.824Z,98667.88
2023-01-17T07:28:05.911Z,98663.22
2023-01-17T07:30:34.304Z,98658.84
2023-01-17T07:33:02.864Z,98679.69
2023-01-17T07:35:30.958Z,98670.38
2023-01-17T07:38:00.520Z,98664.44
2023-01-17T07:40:28.638Z,98672.34
2023-01-17T07:43:02.782Z,98662.31
2023-01-17T07:45:31.060Z,98685.81
2023-01-17T07:47:59.508Z,98670.88
2023-01-17T07:50:30.425Z,98674.66
2023-01-17T07:53:00.330Z,98683.53
2023-01-17T07:55:32.419Z,98695.94
2023-01-17T07:58:03.156Z,98694.22
2023-01-17T08:00:32.178Z,98691.09
2023-01-17T08:03:01.305Z,98686.59
2023-01-17T08:05:31.740Z,98686.88
2023-01-17T08:08:00.880Z,98688.13
2023-01-17T08:10:31.707Z,98683.59
2023-01-17T08:13:00.463Z,98684.34
2023-01-17T08:15:28.950Z,98692.34
2023-01-17T08:17:57.825Z,98688.25
2023-01-17T08:20:30.935Z,98693.06
2023-01-17T08:22:59.408Z,98694.19
2023-01-17T08:25:28.846Z,98683.75
2023-01-17T08:28:00.009Z,98696.44
2023-01-17T08:30:29.267Z,98694.50
2023-01-17T08:32:58.243Z,98685.75
2023-01-17T08:35:28.458Z,98679.31
2023-01-17T08:38:00.754Z,98676.75
2023-01-17T08:40:29.669Z,98683.53
2023-01-17T08:43:01.082Z,98681.13
2023-01-17T08:45:31.145Z,98687.78
2023-01-17T08:48:00.176Z,98689.56
2023-01-17T08:50:30.103Z,98691.41
2023-01-17T08:53:01.378Z,98705.06
2023-01-17T08:55:30.942Z,98711.88
2023-01-17T08:58:00.944Z,98710.16
2023-01-17T09:00:30.187Z,98711.59
2023-01-17T09:02:58.566Z,98716.81
2023-01-17T09:05:28.469Z,98717.50
2023-01-17T09:07:57.883Z,98715.41
2023-01-17T09:10:27.783Z,98712.06
2023-01-17T09:12:59.738Z,98716.72
2023-01-17T09:15:33.610Z,98719.09
2023-01-17T09:18:02.590Z,98722.66
2023-01-17T09:20:32.597Z,98717.53
2023-01-17T09:23:04.115Z,98721.91
2023-01-17T09:25:33.133Z,98712.50
2023-01-17T09:28:03.783Z,98728.56
2023-01-17T09:30:37.047Z,98717.28
2023-01-17T09:33:07.169Z,98731.09
2023-01-17T09:35:41.378Z,98720.53
2023-01-17T09:38:10.336Z,98725.34
2023-01-17T09:40:40.805Z,98735.47
2023-01-17T09:43:21.335Z,98724.78
2023-01-17T09:45:52.704Z,98736.63
2023-01-17T09:48:30.196Z,98730.56
2023-01-17T09:51:03.778Z,98738.91
2023-01-17T09:53:37.708Z,98741.44
2023-01-17T09:56:12.625Z,98744.53
2023-01-17T09:58:47.433Z,98753.53
2023-01-17T10:01:31.512Z,98754.97
2023-01-17T10:04:16.506Z,98749.19
2023-01-17T10:06:58.110Z,98759.50
2023-01-17T10:09:50.081Z,98764.44
2023-01-17T10:12:30.959Z,98753.31
2023-01-17T10:15:31.901Z,98761.38
2023-01-17T10:18:29.114Z,98755.47
2023-01-17T10:21:03.307Z,98753.06
2023-01-17T10:23:48.370Z,98767.44
2023-01-17T10:26:19.156Z,98765.22
2023-01-17T10:28:51.364Z,98760.44
2023-01-17T10:31:24.749Z,98749.16
2023-01-17T10:33:55.975Z,98767.78
2023-01-17T10:36:26.291Z,98761.28
2023-01-17T10:38:57.322Z,98758.75
2023-01-17T10:41:30.464Z,98758.63
2023-01-17T10:44:11.648Z,98769.75
2023-01-17T10:46:44.469Z,98755.94
2023-01-17T10:49:19.295Z,98754.06
2023-01-17T10:52:10.490Z,98758.72
2023-01-17T10:54:54.448Z,98766.59
2023-01-17T10:57:25.442Z,98769.53
2023-01-17T10:59:58.630Z,98754.97
2023-01-17T11:02:31.315Z,98756.66
2023-01-17T11:05:12.490Z,98764.25
2023-01-17T11:07:44.209Z,98763.97
2023-01-17T11:10:50.099Z,98757.06
2023-01-17T11:13:26.531Z,98747.75
2023-01-17T11:16:01.030Z,98759.75
2023-01-17T11:18:31.917Z,98763.97
2023-01-17T11:21:16.964Z,98763.97
2023-01-17T11:23:49.470Z,98763.66
2023-01-17T11:26:28.636Z,98757.56
2023-01-17T11:29:18.834Z,98749.50
2023-01-17T11:31:48.080Z,98749.78
2023-01-17T11:34:20.678Z,98754.78
2023-01-17T11:36:53.722Z,98765.09
2023-01-17T11:39:31.274Z,98755.66
2023-01-17T11:42:01.896Z,98750.84
2023-01-17T11:44:35.099Z,98749.84
2023-01-17T11:47:17.226Z,98744.28
2023-01-17T11:49:48.947Z,98758.09
2023-01-17T11:52:26.276Z,98744.50
2023-01-17T11:54:57.930Z,98744.06
2023-01-17T11:57:37.457Z,98745.75
2023-01-17T12:00:23.707Z,98747.44
2023-01-17T12:03:30.598Z,98742.19
2023-01-17T12:06:26.161Z,98729.41
2023-01-17T12:12:56.742Z,98746.00
2023-01-17T12:16:01.422Z,98727.66
2023-01-17T12:18:36.361Z,98737.50
2023-01-17T12:21:21.368Z,98726.75
2023-01-17T12:24:08.300Z,98731.53
2023-01-17T12:26:41.903Z,98727.84
2023-01-17T12:29:45.407Z,98726.41
2023-01-17T12:32:41.164Z,98712.97
2023-01-17T12:35:16.437Z,98715.31
2023-01-17T12:38:00.300Z,98704.56
2023-01-17T12:40:36.878Z,98716.03
2023-01-17T12:43:13.141Z,98705.09
2023-01-17T12:45:46.020Z,98707.50
2023-01-17T12:48:18.226Z,98716.94
2023-01-17T12:50:53.089Z,98708.50
2023-01-17T12:53:35.465Z,98710.03
2023-01-17T12:56:10.694Z,98705.31
2023-01-17T12:58:42.975Z,98713.53
2023-01-17T13:01:21.714Z,98716.94
2023-01-17T13:04:05.118Z,98716.06
2023-01-17T13:06:44.401Z,98716.94
2023-01-17T13:09:18.466Z,98721.16
2023-01-17T13:11:53.035Z,98714.16
2023-01-17T13:14:21.914Z,98718.72
2023-01-17T13:16:58.257Z,98721.78
2023-01-17T13:19:34.953Z,98702.88
2023-01-17T13:22:08.130Z,98710.09
2023-01-17T13:24:46.667Z,98705.41
2023-01-17T13:27:32.732Z,98705.09
2023-01-17T13:30:16.398Z,98702.13
2023-01-17T13:33:01.689Z,98712.09
2023-01-17T13:35:42.970Z,98713.03
2023-01-17T13:38:25.945Z,98731.84
2023-01-17T13:40:58.531Z,98720.16
2023-01-17T13:43:30.436Z,98718.16
2023-01-17T13:46:03.438Z,98718.31
2023-01-17T13:48:37.372Z,98718.13
2023-01-17T13:51:06.364Z,98729.69
2023-01-17T13:53:48.107Z,98724.50
2023-01-17T13:56:25.141Z,98726.06
2023-01-17T13:58:59.296Z,98728.06
2023-01-17T14:01:55.645Z,98740.47
2023-01-17T14:04:26.169Z,98740.78
2023-01-17T14:06:58.052Z,98727.72
2023-01-17T14:09:31.143Z,98736.00
2023-01-17T14:12:03.637Z,98741.91
2023-01-17T14:14:52.909Z,98743.16
2023-01-17T14:17:48.930Z,98745.53
2023-01-17T14:21:07.762Z,98743.84
2023-01-17T14:23:51.688Z,98750.38
2023-01-17T14:26:33.832Z,98744.31
2023-01-17T14:29:34.944Z,98747.00
2023-01-17T14:32:04.088Z,98740.22
2023-01-17T14:34:34.731Z,98750.53
2023-01-17T14:37:07.811Z,98751.50
2023-01-17T14:39:46.542Z,98762.25
2023-01-17T14:42:18.604Z,98749.16
2023-01-17T14:44:49.413Z,98764.41
2023-01-17T14:47:21.360Z,98752.72
2023-01-17T14:49:49.403Z,98760.78
2023-01-17T14:52:19.182Z,98765.75
2023-01-17T14:54:52.908Z,98760.38
2023-01-17T14:57:28.021Z,98767.72
2023-01-17T15:00:14.983Z,98762.28
2023-01-17T15:02:44.666Z,98763.56
2023-01-17T15:05:17.425Z,98776.38
2023-01-17T15:07:48.684Z,98763.56
2023-01-17T15:10:21.952Z,98762.00
2023-01-17T15:12:50.171Z,98756.81
2023-01-17T15:15:33.053Z,98768.53
2023-01-17T15:18:19.476Z,98775.44
2023-01-17T15:20:54.701Z,98760.47
2023-01-17T15:23:24.710Z,98765.00
2023-01-17T15:25:55.351Z,98774.19
2023-01-17T15:28:23.499Z,98771.81
2023-01-17T15:31:19.046Z,98763.91
2023-01-17T15:33:49.249Z,98767.88
2023-01-17T15:36:27.430Z,98770.53
2023-01-17T15:39:00.277Z,98767.03
2023-01-17T15:41:32.761Z,98777.75
2023-01-17T15:44:01.535Z,98774.69
2023-01-17T15:46:33.093Z,98765.38
2023-01-17T15:49:09.317Z,98772.72
2023-01-17T15:51:41.672Z,98774.72
2023-01-17T15:54:34.647Z,98779.94
2023-01-17T15:57:07.453Z,98781.34
2023-01-17T15:59:45.567Z,98780.66
2023-01-17T16:02:55.413Z,98788.72
2023-01-17T16:05:46.325Z,98791.81
2023-01-17T16:08:38.651Z,98795.09
2023-01-17T16:11:15.782Z,98796.50
2023-01-17T16:13:48.831Z,98784.09
2023-01-17T16:16:24.032Z,98803.25
2023-01-17T16:19:01.234Z,98791.00
2023-01-17T16:21:31.318Z,98803.28
2023-01-17T16:24:00.970Z,98794.72
2023-01-17T16:26:29.877Z,98800.59
2023-01-17T16:28:59.427Z,98796.53
2023-01-17T16:31:28.936Z,98811.06
2023-01-17T16:33:57.004Z,98803.28
2023-01-17T16:36:25.111Z,98792.31
2023-01-17T16:38:53.611Z,98800.50
2023-01-17T16:41:22.033Z,98802.47
2023-01-17T16:44:00.449Z,98795.25
2023-01-17T16:46:29.559Z,98797.81
2023-01-17T16:48:57.822Z,98811.22
2023-01-17T16:51:26.117Z,98819.09
2023-01-17T16:53:54.194Z,98806.41
2023-01-17T16:56:22.340Z,98826.72
2023-01-17T16:58:53.537Z,98825.84
2023-01-17T17:01:23.214Z,98827.69
2023-01-17T17:03:51.554Z,98808.09
2023-01-17T17:06:22.884Z,98803.03
2023-01-17T17:08:52.700Z,98816.97
2023-01-17T17:11:23.397Z,98823.59
2023-01-17T17:13:55.608Z,98813.72
2023-01-17T17:16:30.024Z,98826.56
2023-01-17T17:18:59.869Z,98829.53
2023-01-17T17:21:29.337Z,98829.06
2023-01-17T17:23:59.216Z,98840.50
2023-01-17T17:26:29.065Z,98837.53
2023-01-17T17:28:57.246Z,98849.91
2023-01-17T17:31:27.655Z,98849.50
2023-01-17T17:33:59.548Z,98842.41
2023-01-17T17:36:27.826Z,98861.88
2023-01-17T17:38:56.424Z,98869.19
2023-01-17T17:41:26.128Z,98864.38
2023-01-17T17:43:54.498Z,98868.75
2023-01-17T17:46:24.873Z,98865.78
2023-01-17T17:48:54.786Z,98877.31
2023-01-17T17:51:27.941Z,98886.06
2023-01-17T17:53:57.117Z,98882.69
2023-01-17T17:56:25.479Z,98878.00
2023-01-17T17:58:56.514Z,98891.09
2023-01-17T18:01:24.995Z,98886.88
2023-01-17T18:03:57.065Z,98886.44
2023-01-17T18:06:25.815Z,98901.13
2023-01-17T18:08:54.218Z,98897.84
2023-01-17T18:11:24.735Z,98902.75
2023-01-17T18:13:55.009Z,98912.34
2023-01-17T18:16:25.449Z,98909.09
2023-01-17T18:18:58.445Z,98910.31
2023-01-17T18:21:29.414Z,98911.28
2023-01-17T18:23:59.891Z,98916.66
2023-01-17T18:26:29.639Z,98923.53
2023-01-17T18:28:59.304Z,98928.03
2023-01-17T18:31:29.102Z,98923.59
2023-01-17T18:34:00.896Z,98943.78
2023-01-17T18:36:29.654Z,98943.78
2023-01-17T18:38:58.465Z,98937.34
2023-01-17T18:41:28.740Z,98940.31
2023-01-17T18:43:57.708Z,98942.13
2023-01-17T18:46:27.338Z,98956.59
2023-01-17T18:48:59.122Z,98957.13
2023-01-17T18:51:29.564Z,98961.34
2023-01-17T18:53:58.143Z,98956.41
2023-01-17T18:56:31.013Z,98968.81
2023-01-17T18:58:59.496Z,98964.53
2023-01-17T19:01:28.992Z,98976.69
2023-01-17T19:04:00.571Z,98973.69
2023-01-17T19:06:30.439Z,98981.47
2023-01-17T19:08:59.829Z,98969.19
2023-01-17T19:11:29.231Z,98967.50
2023-01-17T19:13:58.068Z,98963.63
2023-01-17T19:16:29.730Z,98966.91
2023-01-17T19:19:03.385Z,98961.69
2023-01-17T19:21:35.109Z,98961.19
2023-01-17T19:24:03.321Z,98970.69
2023-01-17T19:26:31.594Z,98969.13
2023-01-17T19:29:00.479Z,98973.88
2023-01-17T19:31:30.837Z,98981.63
2023-01-17T19:34:01.656Z,98987.84
2023-01-17T19:36:33.906Z,98982.88
2023-01-17T19:39:06.542Z,98995.84
2023-01-17T19:42:02.774Z,98983.09
2023-01-17T19:44:29.604Z,98985.25
2023-01-17T19:46:57.913Z,98988.06
2023-01-17T19:49:27.540Z,98997.66
2023-01-17T19:51:55.779Z,98988.22
2023-01-17T19:54:24.163Z,98996.97
2023-01-17T19:56:52.745Z,99004.97
2023-01-17T19:59:22.738Z,98999.03
2023-01-17T20:01:50.962Z,98999.03
2023-01-17T20:04:21.585Z,98997.34
2023-01-17T20:06:51.279Z,98995.78
2023-01-17T20:09:19.304Z,98998.69
2023-01-17T20:11:49.090Z,98992.88
2023-01-17T20:14:17.795Z,99012.03
2023-01-17T20:16:47.641Z,99002.59
2023-01-17T20:19:15.851Z,99012.19
2023-01-17T20:21:46.373Z,99022.03
2023-01-17T20:24:16.969Z,99018.34
2023-01-17T20:26:45.077Z,99018.25
2023-01-17T20:29:15.405Z,99010.34
2023-01-17T20:31:45.591Z,99011.06
2023-01-17T20:34:19.702Z,99020.94
2023-01-17T20:36:51.028Z,99013.00
2023-01-17T20:39:22.036Z,99015.69
2023-01-17T20:41:51.650Z,99021.31
2023-01-17T20:44:21.236Z,99023.72
2023-01-17T20:46:49.519Z,99023.25
2023-01-17T20:49:20.324Z,99026.50
2023-01-17T20:51:49.036Z,99030.06
2023-01-17T20:54:27.461Z,99032.00
2023-01-17T20:56:55.780Z,99026.50
2023-01-17T20:59:24.177Z,99017.75
2023-01-17T21:01:53.010Z,99021.66
2023-01-17T21:04:25.822Z,99025.91
2023-01-17T21:06:55.655Z,99026.88
2023-01-17T21:09:23.656Z,99019.97
2023-01-17T21:11:54.457Z,99024.22
2023-01-17T21:14:22.980Z,99021.94
2023-01-17T21:16:51.540Z,99017.56
2023-01-17T21:19:20.576Z,99016.00
2023-01-17T21:21:50.341Z,99019.72
2023-01-17T21:24:19.276Z,99017.19
2023-01-17T21:26:51.591Z,99021.84
2023-01-17T21:29:21.123Z,99031.94
2023-01-17T21:31:49.126Z,99037.28
2023-01-17T21:34:17.435Z,99036.16
2023-01-17T21:36:45.485Z,99038.09
2023-01-17T21:39:15.885Z,99031.06
2023-01-17T21:41:47.151Z,99026.22
2023-01-17T21:44:16.826Z,99029.50
2023-01-17T21:46:46.678Z,99034.00
2023-01-17T21:49:15.214Z,99026.34
2023-01-17T21:52:01.736Z,99033.38
2023-01-17T21:54:59.901Z,99028.16
2023-01-17T21:57:45.417Z,99019.53
2023-01-17T22:00:15.645Z,99041.16
2023-01-17T22:02:45.920Z,99031.41
2023-01-17T22:05:16.490Z,99037.75
2023-01-17T22:08:05.658Z,99037.03
2023-01-17T22:10:44.643Z,99035.19
2023-01-17T22:13:14.366Z,99033.88
2023-01-17T22:15:42.820Z,99033.75
2023-01-17T22:18:12.858Z,99034.84
2023-01-17T22:20:42.050Z,99039.31
2023-01-17T22:23:11.580Z,99040.31
2023-01-17T22:25:42.535Z,99045.41
2023-01-17T22:28:10.648Z,99042.50
2023-01-17T22:30:38.750Z,99048.34
2023-01-17T22:33:09.634Z,99051.13
2023-01-17T22:35:39.184Z,99055.00
2023-01-17T22:38:07.741Z,99063.75
2023-01-17T22:40:38.331Z,99060.22
2023-01-17T22:43:06.472Z,99062.91
2023-01-17T22:45:34.563Z,99060.34
2023-01-17T22:48:02.819Z,99065.69
2023-01-17T22:50:30.864Z,99068.84
2023-01-17T22:53:00.307Z,99062.41
2023-01-17T22:55:28.574Z,99064.97
2023-01-17T22:57:57.223Z,99066.06
2023-01-17T23:00:25.319Z,99065.22
2023-01-17T23:02:53.392Z,99067.75
2023-01-17T23:05:22.991Z,99065.31
2023-01-17T23:07:51.489Z,99060.22
2023-01-17T23:10:34.894Z,99065.56
2023-01-17T23:13:03.065Z,99061.94
2023-01-17T23:15:48.455Z,99051.47
2023-01-17T23:18:34.276Z,99056.13
2023-01-17T23:21:02.306Z,99061.31
2023-01-17T23:23:30.285Z,99051.84
2023-01-17T23:26:02.370Z,99046.03
2023-01-17T23:28:29.508Z,99061.69
2023-01-17T23:31:05.039Z,99056.59
2023-01-17T23:33:33.088Z,99056.59
2023-01-17T23:36:01.618Z,99052.94
2023-01-17T23:38:31.344Z,99048.59
2023-01-17T23:41:23.262Z,99054.78
2023-01-17T23:43:52.063Z,99044.31
2023-01-17T23:46:20.052Z,99054.03
2023-01-17T23:48:48.259Z,99059.63
2023-01-17T23:51:16.262Z,99055.25
2023-01-17T23:53:44.345Z,99051.22
2023-01-17T23:56:17.708Z,99051.50
2023-01-17T23:58:46.124Z,99056.09
